sensor_id;sensor_type;location;lat;lon;timestamp;pressure;altitude;pressure_sealevel;temperature;humidity
49461;BME280;35355;49.198;-0.368;2023-07-22T00:02:00;101110.59;;;18.08;56.48
49461;BME280;35355;49.198;-0.368;2023-07-22T00:04:25;101123.59;;;18.07;56.58
49461;BME280;35355;49.198;-0.368;2023-07-22T00:06:52;101114.28;;;18.03;56.57
49461;BME280;35355;49.198;-0.368;2023-07-22T00:09:17;101119.81;;;18.03;56.51
49461;BME280;35355;49.198;-0.368;2023-07-22T00:11:42;101112.63;;;18.02;56.43
49461;BME280;35355;49.198;-0.368;2023-07-22T00:14:08;101118.97;;;18.02;56.67
49461;BME280;35355;49.198;-0.368;2023-07-22T00:16:34;101115.69;;;18.00;56.82
49461;BME280;35355;49.198;-0.368;2023-07-22T00:19:00;101116.31;;;17.97;56.87
49461;BME280;35355;49.198;-0.368;2023-07-22T00:21:25;101120.19;;;17.96;56.70
49461;BME280;35355;49.198;-0.368;2023-07-22T00:23:51;101119.38;;;17.96;56.91
49461;BME280;35355;49.198;-0.368;2023-07-22T00:26:16;101119.69;;;17.94;56.87
49461;BME280;35355;49.198;-0.368;2023-07-22T00:28:41;101115.88;;;17.90;56.80
49461;BME280;35355;49.198;-0.368;2023-07-22T00:31:08;101113.63;;;17.92;57.18
49461;BME280;35355;49.198;-0.368;2023-07-22T00:33:34;101107.84;;;17.88;57.11
49461;BME280;35355;49.198;-0.368;2023-07-22T00:35:59;101108.16;;;17.87;57.37
49461;BME280;35355;49.198;-0.368;2023-07-22T00:38:25;101108.47;;;17.85;57.34
49461;BME280;35355;49.198;-0.368;2023-07-22T00:40:50;101096.63;;;17.85;57.46
49461;BME280;35355;49.198;-0.368;2023-07-22T00:43:15;101097.19;;;17.82;57.51
49461;BME280;35355;49.198;-0.368;2023-07-22T00:45:41;101097.19;;;17.82;57.63
49461;BME280;35355;49.198;-0.368;2023-07-22T00:48:08;101095.56;;;17.81;57.40
49461;BME280;35355;49.198;-0.368;2023-07-22T00:50:35;101095.78;;;17.84;57.46
49461;BME280;35355;49.198;-0.368;2023-07-22T00:53:00;101094.97;;;17.84;57.49
49461;BME280;35355;49.198;-0.368;2023-07-22T00:55:26;101100.50;;;17.84;57.61
49461;BME280;35355;49.198;-0.368;2023-07-22T00:57:54;101102.72;;;17.82;57.49
49461;BME280;35355;49.198;-0.368;2023-07-22T01:00:19;101096.38;;;17.81;57.83
49461;BME280;35355;49.198;-0.368;2023-07-22T01:02:44;101093.91;;;17.80;57.96
49461;BME280;35355;49.198;-0.368;2023-07-22T01:05:11;101084.81;;;17.79;57.96
49461;BME280;35355;49.198;-0.368;2023-07-22T01:07:38;101090.06;;;17.81;58.03
49461;BME280;35355;49.198;-0.368;2023-07-22T01:10:04;101076.84;;;17.78;57.75
49461;BME280;35355;49.198;-0.368;2023-07-22T01:12:31;101079.06;;;17.76;58.04
49461;BME280;35355;49.198;-0.368;2023-07-22T01:14:56;101076.31;;;17.76;58.31
49461;BME280;35355;49.198;-0.368;2023-07-22T01:17:22;101076.31;;;17.76;57.97
49461;BME280;35355;49.198;-0.368;2023-07-22T01:19:47;101079.38;;;17.74;57.97
49461;BME280;35355;49.198;-0.368;2023-07-22T01:22:13;101067.53;;;17.74;57.85
49461;BME280;35355;49.198;-0.368;2023-07-22T01:24:39;101069.47;;;17.73;57.87
49461;BME280;35355;49.198;-0.368;2023-07-22T01:27:06;101060.97;;;17.69;57.75
49461;BME280;35355;49.198;-0.368;2023-07-22T01:29:33;101062.06;;;17.68;58.00
49461;BME280;35355;49.198;-0.368;2023-07-22T01:31:59;101065.44;;;17.65;58.07
49461;BME280;35355;49.198;-0.368;2023-07-22T01:34:24;101059.41;;;17.63;57.94
49461;BME280;35355;49.198;-0.368;2023-07-22T01:36:50;101053.38;;;17.61;57.82
49461;BME280;35355;49.198;-0.368;2023-07-22T01:39:16;101057.75;;;17.62;58.03
49461;BME280;35355;49.198;-0.368;2023-07-22T01:41:42;101055.31;;;17.61;58.11
49461;BME280;35355;49.198;-0.368;2023-07-22T01:44:08;101050.41;;;17.58;58.26
49461;BME280;35355;49.198;-0.368;2023-07-22T01:46:34;101052.56;;;17.61;58.32
49461;BME280;35355;49.198;-0.368;2023-07-22T01:49:01;101056.41;;;17.60;58.17
49461;BME280;35355;49.198;-0.368;2023-07-22T01:51:27;101053.47;;;17.56;58.07
49461;BME280;35355;49.198;-0.368;2023-07-22T01:53:52;101052.94;;;17.54;58.19
49461;BME280;35355;49.198;-0.368;2023-07-22T01:56:18;101057.63;;;17.53;58.37
49461;BME280;35355;49.198;-0.368;2023-07-22T01:58:45;101050.25;;;17.49;58.00
49461;BME280;35355;49.198;-0.368;2023-07-22T02:01:11;101051.91;;;17.50;58.08
49461;BME280;35355;49.198;-0.368;2023-07-22T02:03:39;101056.88;;;17.48;58.45
49461;BME280;35355;49.198;-0.368;2023-07-22T02:06:05;101052.81;;;17.45;58.17
49461;BME280;35355;49.198;-0.368;2023-07-22T02:08:30;101053.94;;;17.44;58.50
49461;BME280;35355;49.198;-0.368;2023-07-22T02:11:06;101039.09;;;17.40;57.70
49461;BME280;35355;49.198;-0.368;2023-07-22T02:13:33;101043.69;;;17.45;58.26
49461;BME280;35355;49.198;-0.368;2023-07-22T02:15:59;101036.56;;;17.44;58.39
49461;BME280;35355;49.198;-0.368;2023-07-22T02:18:25;101034.41;;;17.41;58.31
49461;BME280;35355;49.198;-0.368;2023-07-22T02:20:51;101028.34;;;17.39;58.58
49461;BME280;35355;49.198;-0.368;2023-07-22T02:23:16;101028.13;;;17.35;58.19
49461;BME280;35355;49.198;-0.368;2023-07-22T02:25:42;101034.78;;;17.34;58.39
49461;BME280;35355;49.198;-0.368;2023-07-22T02:28:07;101042.25;;;17.33;58.48
49461;BME280;35355;49.198;-0.368;2023-07-22T02:30:38;101038.13;;;17.31;58.15
49461;BME280;35355;49.198;-0.368;2023-07-22T02:33:05;101030.97;;;17.30;58.35
49461;BME280;35355;49.198;-0.368;2023-07-22T02:35:31;101029.66;;;17.27;58.44
49461;BME280;35355;49.198;-0.368;2023-07-22T02:37:56;101032.91;;;17.29;58.39
49461;BME280;35355;49.198;-0.368;2023-07-22T02:40:22;101034.03;;;17.28;58.66
49461;BME280;35355;49.198;-0.368;2023-07-22T02:42:47;101030.75;;;17.26;58.48
49461;BME280;35355;49.198;-0.368;2023-07-22T02:45:12;101031.38;;;17.23;58.67
49461;BME280;35355;49.198;-0.368;2023-07-22T02:47:38;101030.53;;;17.23;58.47
49461;BME280;35355;49.198;-0.368;2023-07-22T02:50:05;101036.88;;;17.23;58.59
49461;BME280;35355;49.198;-0.368;2023-07-22T02:52:31;101031.97;;;17.20;58.58
49461;BME280;35355;49.198;-0.368;2023-07-22T02:55:14;101031.44;;;17.18;58.24
49461;BME280;35355;49.198;-0.368;2023-07-22T02:57:40;101034.41;;;17.22;58.64
49461;BME280;35355;49.198;-0.368;2023-07-22T03:00:07;101027.06;;;17.17;58.73
49461;BME280;35355;49.198;-0.368;2023-07-22T03:02:36;101032.84;;;17.15;58.76
49461;BME280;35355;49.198;-0.368;2023-07-22T03:05:04;101040.00;;;17.16;58.66
49461;BME280;35355;49.198;-0.368;2023-07-22T03:07:36;101046.94;;;17.14;58.54
49461;BME280;35355;49.198;-0.368;2023-07-22T03:10:02;101042.25;;;17.14;58.85
49461;BME280;35355;49.198;-0.368;2023-07-22T03:12:27;101037.53;;;17.15;58.95
49461;BME280;35355;49.198;-0.368;2023-07-22T03:14:53;101040.25;;;17.20;58.90
49461;BME280;35355;49.198;-0.368;2023-07-22T03:17:19;101048.50;;;17.20;59.02
49461;BME280;35355;49.198;-0.368;2023-07-22T03:19:44;101034.72;;;17.20;58.94
49461;BME280;35355;49.198;-0.368;2023-07-22T03:22:13;101035.22;;;17.22;59.03
49461;BME280;35355;49.198;-0.368;2023-07-22T03:24:38;101038.50;;;17.24;59.36
49461;BME280;35355;49.198;-0.368;2023-07-22T03:27:04;101036.28;;;17.26;59.11
49461;BME280;35355;49.198;-0.368;2023-07-22T03:29:29;101030.16;;;17.29;59.24
49461;BME280;35355;49.198;-0.368;2023-07-22T03:31:55;101030.06;;;17.34;58.92
49461;BME280;35355;49.198;-0.368;2023-07-22T03:34:22;101030.59;;;17.36;59.10
49461;BME280;35355;49.198;-0.368;2023-07-22T03:36:48;101032.81;;;17.34;58.83
49461;BME280;35355;49.198;-0.368;2023-07-22T03:39:14;101045.00;;;17.33;59.04
49461;BME280;35355;49.198;-0.368;2023-07-22T03:41:39;101034.25;;;17.32;58.80
49461;BME280;35355;49.198;-0.368;2023-07-22T03:44:04;101033.44;;;17.31;59.16
49461;BME280;35355;49.198;-0.368;2023-07-22T03:46:30;101035.69;;;17.29;59.37
49461;BME280;35355;49.198;-0.368;2023-07-22T03:48:55;101038.44;;;17.29;59.00
49461;BME280;35355;49.198;-0.368;2023-07-22T03:51:20;101040.91;;;17.31;58.97
49461;BME280;35355;49.198;-0.368;2023-07-22T03:53:46;101037.31;;;17.30;59.19
49461;BME280;35355;49.198;-0.368;2023-07-22T03:56:12;101032.91;;;17.29;59.02
49461;BME280;35355;49.198;-0.368;2023-07-22T03:58:37;101027.69;;;17.28;59.16
49461;BME280;35355;49.198;-0.368;2023-07-22T04:01:02;101023.84;;;17.29;59.11
49461;BME280;35355;49.198;-0.368;2023-07-22T04:03:28;101020.78;;;17.30;58.99
49461;BME280;35355;49.198;-0.368;2023-07-22T04:05:54;101022.94;;;17.33;58.90
49461;BME280;35355;49.198;-0.368;2023-07-22T04:08:20;101024.03;;;17.32;58.99
49461;BME280;35355;49.198;-0.368;2023-07-22T04:10:53;101014.72;;;17.28;58.70
49461;BME280;35355;49.198;-0.368;2023-07-22T04:13:19;101016.44;;;17.24;58.88
49461;BME280;35355;49.198;-0.368;2023-07-22T04:15:44;101024.84;;;17.33;59.09
49461;BME280;35355;49.198;-0.368;2023-07-22T04:18:10;101029.06;;;17.30;58.90
49461;BME280;35355;49.198;-0.368;2023-07-22T04:20:35;101025.75;;;17.28;59.01
49461;BME280;35355;49.198;-0.368;2023-07-22T04:23:01;101029.84;;;17.31;58.81
49461;BME280;35355;49.198;-0.368;2023-07-22T04:25:26;101034.03;;;17.28;58.66
49461;BME280;35355;49.198;-0.368;2023-07-22T04:27:52;101020.84;;;17.25;58.74
49461;BME280;35355;49.198;-0.368;2023-07-22T04:30:17;101029.13;;;17.25;58.71
49461;BME280;35355;49.198;-0.368;2023-07-22T04:32:50;101026.16;;;17.22;58.65
49461;BME280;35355;49.198;-0.368;2023-07-22T04:35:17;101021.00;;;17.15;58.60
49461;BME280;35355;49.198;-0.368;2023-07-22T04:37:43;101019.88;;;17.16;58.87
49461;BME280;35355;49.198;-0.368;2023-07-22T04:40:11;101026.50;;;17.15;58.89
49461;BME280;35355;49.198;-0.368;2023-07-22T04:42:40;101025.41;;;17.16;58.81
49461;BME280;35355;49.198;-0.368;2023-07-22T04:45:06;101029.28;;;17.15;58.80
49461;BME280;35355;49.198;-0.368;2023-07-22T04:47:32;101024.34;;;17.12;59.15
49461;BME280;35355;49.198;-0.368;2023-07-22T04:49:57;101015.56;;;17.10;59.11
49461;BME280;35355;49.198;-0.368;2023-07-22T04:52:22;101015.56;;;17.10;58.92
49461;BME280;35355;49.198;-0.368;2023-07-22T04:54:48;101013.84;;;17.14;58.90
49461;BME280;35355;49.198;-0.368;2023-07-22T04:57:13;101006.09;;;17.16;58.95
49461;BME280;35355;49.198;-0.368;2023-07-22T04:59:39;101013.75;;;17.19;58.90
49461;BME280;35355;49.198;-0.368;2023-07-22T05:02:04;101019.50;;;17.23;59.02
49461;BME280;35355;49.198;-0.368;2023-07-22T05:04:29;101009.59;;;17.22;58.76
49461;BME280;35355;49.198;-0.368;2023-07-22T05:06:55;101007.34;;;17.24;58.47
49461;BME280;35355;49.198;-0.368;2023-07-22T05:09:20;101015.03;;;17.27;58.46
49461;BME280;35355;49.198;-0.368;2023-07-22T05:11:46;101013.91;;;17.28;58.51
49461;BME280;35355;49.198;-0.368;2023-07-22T05:14:11;101017.47;;;17.28;58.59
49461;BME280;35355;49.198;-0.368;2023-07-22T05:16:37;101030.16;;;17.29;58.36
49461;BME280;35355;49.198;-0.368;2023-07-22T05:19:02;101027.09;;;17.31;58.36
49461;BME280;35355;49.198;-0.368;2023-07-22T05:21:30;101030.06;;;17.34;58.27
49461;BME280;35355;49.198;-0.368;2023-07-22T05:23:55;101036.13;;;17.36;58.53
49461;BME280;35355;49.198;-0.368;2023-07-22T05:26:20;101036.63;;;17.39;58.25
49461;BME280;35355;49.198;-0.368;2023-07-22T05:28:46;101038.56;;;17.38;58.40
49461;BME280;35355;49.198;-0.368;2023-07-22T05:31:11;101036.63;;;17.39;58.39
49461;BME280;35355;49.198;-0.368;2023-07-22T05:33:37;101032.44;;;17.41;58.15
49461;BME280;35355;49.198;-0.368;2023-07-22T05:36:03;101027.75;;;17.42;58.25
49461;BME280;35355;49.198;-0.368;2023-07-22T05:38:28;101023.56;;;17.44;58.13
49461;BME280;35355;49.198;-0.368;2023-07-22T05:40:53;101029.03;;;17.49;58.00
49461;BME280;35355;49.198;-0.368;2023-07-22T05:43:19;101021.56;;;17.50;58.09
49461;BME280;35355;49.198;-0.368;2023-07-22T05:45:45;101028.13;;;17.54;57.80
49461;BME280;35355;49.198;-0.368;2023-07-22T05:48:10;101026.47;;;17.53;57.96
49461;BME280;35355;49.198;-0.368;2023-07-22T05:50:36;101035.25;;;17.55;57.69
49461;BME280;35355;49.198;-0.368;2023-07-22T05:53:01;101021.16;;;17.57;57.64
49461;BME280;35355;49.198;-0.368;2023-07-22T05:55:27;101015.31;;;17.58;57.86
49461;BME280;35355;49.198;-0.368;2023-07-22T05:57:52;101018.63;;;17.60;57.63
49461;BME280;35355;49.198;-0.368;2023-07-22T06:00:18;101013.91;;;17.61;57.79
49461;BME280;35355;49.198;-0.368;2023-07-22T06:02:44;101012.50;;;17.63;57.62
49461;BME280;35355;49.198;-0.368;2023-07-22T06:05:09;101010.53;;;17.64;57.62
49461;BME280;35355;49.198;-0.368;2023-07-22T06:07:35;101020.16;;;17.66;57.85
49461;BME280;35355;49.198;-0.368;2023-07-22T06:10:00;101017.91;;;17.68;57.59
49461;BME280;35355;49.198;-0.368;2023-07-22T06:12:26;101017.28;;;17.71;57.43
49461;BME280;35355;49.198;-0.368;2023-07-22T06:14:51;101022.81;;;17.71;57.36
49461;BME280;35355;49.198;-0.368;2023-07-22T06:17:16;101024.47;;;17.73;57.34
49461;BME280;35355;49.198;-0.368;2023-07-22T06:19:42;101028.88;;;17.74;57.40
49461;BME280;35355;49.198;-0.368;2023-07-22T06:22:07;101021.69;;;17.73;57.55
49461;BME280;35355;49.198;-0.368;2023-07-22T06:24:33;101032.13;;;17.76;57.80
49461;BME280;35355;49.198;-0.368;2023-07-22T06:26:58;101024.69;;;17.76;57.46
49461;BME280;35355;49.198;-0.368;2023-07-22T06:29:23;101024.38;;;17.78;57.75
49461;BME280;35355;49.198;-0.368;2023-07-22T06:31:49;101020.47;;;17.79;57.76
49461;BME280;35355;49.198;-0.368;2023-07-22T06:34:14;101031.53;;;17.79;57.74
49461;BME280;35355;49.198;-0.368;2023-07-22T06:36:39;101035.63;;;17.81;57.48
49461;BME280;35355;49.198;-0.368;2023-07-22T06:39:05;101029.00;;;17.82;57.75
49461;BME280;35355;49.198;-0.368;2023-07-22T06:41:30;101036.44;;;17.82;57.64
49461;BME280;35355;49.198;-0.368;2023-07-22T06:43:56;101036.97;;;17.84;57.73
49461;BME280;35355;49.198;-0.368;2023-07-22T06:46:21;101028.69;;;17.84;57.73
49461;BME280;35355;49.198;-0.368;2023-07-22T06:48:47;101031.97;;;17.86;57.84
49461;BME280;35355;49.198;-0.368;2023-07-22T06:51:12;101029.72;;;17.88;57.98
49461;BME280;35355;49.198;-0.368;2023-07-22T06:53:38;101031.91;;;17.91;57.85
49461;BME280;35355;49.198;-0.368;2023-07-22T06:56:04;101026.50;;;18.00;57.87
49461;BME280;35355;49.198;-0.368;2023-07-22T06:58:29;101028.53;;;18.08;57.92
49461;BME280;35355;49.198;-0.368;2023-07-22T07:00:55;101030.50;;;18.21;57.92
49461;BME280;35355;49.198;-0.368;2023-07-22T07:03:21;101034.69;;;18.33;57.94
49461;BME280;35355;49.198;-0.368;2023-07-22T07:05:54;101034.91;;;18.36;58.12
49461;BME280;35355;49.198;-0.368;2023-07-22T07:08:20;101024.88;;;18.40;58.50
49461;BME280;35355;49.198;-0.368;2023-07-22T07:10:45;101027.00;;;18.44;58.60
49461;BME280;35355;49.198;-0.368;2023-07-22T07:13:11;101032.22;;;18.45;58.91
49461;BME280;35355;49.198;-0.368;2023-07-22T07:15:36;101025.28;;;18.48;59.20
49461;BME280;35355;49.198;-0.368;2023-07-22T07:18:02;101033.47;;;18.53;59.40
49461;BME280;35355;49.198;-0.368;2023-07-22T07:20:27;101028.13;;;18.56;59.50
49461;BME280;35355;49.198;-0.368;2023-07-22T07:22:53;101022.78;;;18.60;59.58
49461;BME280;35355;49.198;-0.368;2023-07-22T07:25:18;101025.16;;;18.67;59.97
49461;BME280;35355;49.198;-0.368;2023-07-22T07:27:43;101026.97;;;18.71;60.32
49461;BME280;35355;49.198;-0.368;2023-07-22T07:30:09;101016.94;;;18.75;60.35
49461;BME280;35355;49.198;-0.368;2023-07-22T07:32:36;101021.84;;;18.79;60.40
49461;BME280;35355;49.198;-0.368;2023-07-22T07:35:01;101024.31;;;18.80;60.31
49461;BME280;35355;49.198;-0.368;2023-07-22T07:37:27;101022.66;;;18.79;60.55
49461;BME280;35355;49.198;-0.368;2023-07-22T07:39:53;101016.13;;;18.75;60.51
49461;BME280;35355;49.198;-0.368;2023-07-22T07:42:18;101019.09;;;18.79;60.63
49461;BME280;35355;49.198;-0.368;2023-07-22T07:44:44;101024.81;;;18.82;60.61
49461;BME280;35355;49.198;-0.368;2023-07-22T07:47:09;101024.50;;;18.84;60.67
49461;BME280;35355;49.198;-0.368;2023-07-22T07:49:35;101021.16;;;18.87;60.47
49461;BME280;35355;49.198;-0.368;2023-07-22T07:52:00;101014.38;;;18.93;60.29
49461;BME280;35355;49.198;-0.368;2023-07-22T07:54:26;101014.88;;;18.95;60.27
49461;BME280;35355;49.198;-0.368;2023-07-22T07:56:51;101008.84;;;18.93;59.85
49461;BME280;35355;49.198;-0.368;2023-07-22T07:59:16;101009.88;;;18.97;59.35
49461;BME280;35355;49.198;-0.368;2023-07-22T08:01:42;101007.59;;;18.99;59.67
49461;BME280;35355;49.198;-0.368;2023-07-22T08:04:08;101016.59;;;19.05;59.38
49461;BME280;35355;49.198;-0.368;2023-07-22T08:06:34;101002.00;;;19.13;59.54
49461;BME280;35355;49.198;-0.368;2023-07-22T08:08:59;100998.66;;;19.25;59.26
49461;BME280;35355;49.198;-0.368;2023-07-22T08:11:25;101004.16;;;19.39;58.87
49461;BME280;35355;49.198;-0.368;2023-07-22T08:13:50;100999.97;;;19.50;58.28
49461;BME280;35355;49.198;-0.368;2023-07-22T08:16:17;101008.34;;;19.59;57.98
49461;BME280;35355;49.198;-0.368;2023-07-22T08:18:43;101014.56;;;19.64;57.76
49461;BME280;35355;49.198;-0.368;2023-07-22T08:21:09;101010.69;;;19.66;57.09
49461;BME280;35355;49.198;-0.368;2023-07-22T08:23:35;101008.41;;;19.68;56.57
49461;BME280;35355;49.198;-0.368;2023-07-22T08:26:01;101012.00;;;19.68;56.51
49461;BME280;35355;49.198;-0.368;2023-07-22T08:28:29;101012.00;;;19.68;56.25
49461;BME280;35355;49.198;-0.368;2023-07-22T08:30:55;101014.63;;;19.73;56.18
49461;BME280;35355;49.198;-0.368;2023-07-22T08:33:22;101010.09;;;19.77;56.08
49461;BME280;35355;49.198;-0.368;2023-07-22T08:35:48;101013.91;;;19.82;55.41
49461;BME280;35355;49.198;-0.368;2023-07-22T08:38:14;101008.84;;;19.84;54.94
49461;BME280;35355;49.198;-0.368;2023-07-22T08:40:40;101003.75;;;19.77;55.02
49461;BME280;35355;49.198;-0.368;2023-07-22T08:43:08;101006.22;;;19.78;54.68
49461;BME280;35355;49.198;-0.368;2023-07-22T08:45:36;101006.84;;;19.75;54.40
49461;BME280;35355;49.198;-0.368;2023-07-22T08:48:04;101008.28;;;19.73;54.27
49461;BME280;35355;49.198;-0.368;2023-07-22T08:50:51;101004.50;;;19.69;54.75
49461;BME280;35355;49.198;-0.368;2023-07-22T08:53:18;101004.00;;;19.67;54.46
49461;BME280;35355;49.198;-0.368;2023-07-22T08:55:47;101001.03;;;19.63;54.16
49461;BME280;35355;49.198;-0.368;2023-07-22T08:58:15;101014.25;;;19.66;53.92
49461;BME280;35355;49.198;-0.368;2023-07-22T09:00:42;101018.19;;;19.65;53.92
49461;BME280;35355;49.198;-0.368;2023-07-22T09:03:09;101018.19;;;19.65;53.76
49461;BME280;35355;49.198;-0.368;2023-07-22T09:05:35;101003.50;;;19.64;53.42
49461;BME280;35355;49.198;-0.368;2023-07-22T09:08:07;101005.25;;;19.60;53.51
49461;BME280;35355;49.198;-0.368;2023-07-22T09:10:33;101007.22;;;19.60;52.92
49461;BME280;35355;49.198;-0.368;2023-07-22T09:13:00;101006.72;;;19.58;53.04
49461;BME280;35355;49.198;-0.368;2023-07-22T09:15:26;101000.56;;;19.61;53.06
49461;BME280;35355;49.198;-0.368;2023-07-22T09:17:52;100996.84;;;19.66;52.83
49461;BME280;35355;49.198;-0.368;2023-07-22T09:20:19;100998.66;;;19.70;52.46
49461;BME280;35355;49.198;-0.368;2023-07-22T09:22:46;100999.78;;;19.69;52.22
49461;BME280;35355;49.198;-0.368;2023-07-22T09:25:13;101003.56;;;19.73;51.92
49461;BME280;35355;49.198;-0.368;2023-07-22T09:27:42;100991.03;;;19.76;51.70
49461;BME280;35355;49.198;-0.368;2023-07-22T09:32:45;100992.66;;;19.77;50.91
49461;BME280;35355;49.198;-0.368;2023-07-22T09:35:11;100984.34;;;19.77;50.98
49461;BME280;35355;49.198;-0.368;2023-07-22T09:37:37;100992.38;;;19.78;50.73
49461;BME280;35355;49.198;-0.368;2023-07-22T09:40:13;100989.78;;;19.82;51.61
49461;BME280;35355;49.198;-0.368;2023-07-22T09:42:40;100990.94;;;19.90;51.14
49461;BME280;35355;49.198;-0.368;2023-07-22T09:45:05;100994.59;;;19.99;51.24
49461;BME280;35355;49.198;-0.368;2023-07-22T09:47:40;100988.56;;;20.06;51.72
49461;BME280;35355;49.198;-0.368;2023-07-22T09:50:06;100992.19;;;20.15;50.88
49461;BME280;35355;49.198;-0.368;2023-07-22T09:52:33;100996.63;;;20.25;51.00
49461;BME280;35355;49.198;-0.368;2023-07-22T09:54:59;100990.78;;;20.35;50.89
49461;BME280;35355;49.198;-0.368;2023-07-22T09:57:24;100985.75;;;20.46;50.82
49461;BME280;35355;49.198;-0.368;2023-07-22T09:59:52;100991.84;;;20.57;50.92
49461;BME280;35355;49.198;-0.368;2023-07-22T10:02:20;100992.47;;;20.62;50.48
49461;BME280;35355;49.198;-0.368;2023-07-22T10:04:48;100990.03;;;20.61;50.36
49461;BME280;35355;49.198;-0.368;2023-07-22T10:07:18;100992.00;;;20.60;50.43
49461;BME280;35355;49.198;-0.368;2023-07-22T10:09:45;100992.63;;;20.57;50.17
49461;BME280;35355;49.198;-0.368;2023-07-22T10:12:11;100986.63;;;20.55;49.99
49461;BME280;35355;49.198;-0.368;2023-07-22T10:14:40;100983.50;;;20.57;50.12
49461;BME280;35355;49.198;-0.368;2023-07-22T10:17:07;100997.38;;;20.57;50.29
49461;BME280;35355;49.198;-0.368;2023-07-22T10:19:34;100981.22;;;20.59;50.62
49461;BME280;35355;49.198;-0.368;2023-07-22T10:22:00;100993.31;;;20.63;50.51
49461;BME280;35355;49.198;-0.368;2023-07-22T10:24:26;100986.81;;;20.67;50.72
49461;BME280;35355;49.198;-0.368;2023-07-22T10:26:52;100978.66;;;20.71;50.60
49461;BME280;35355;49.198;-0.368;2023-07-22T10:29:20;100984.84;;;20.77;50.33
49461;BME280;35355;49.198;-0.368;2023-07-22T10:31:45;100980.16;;;20.77;49.94
49461;BME280;35355;49.198;-0.368;2023-07-22T10:34:11;100989.75;;;20.80;50.34
49461;BME280;35355;49.198;-0.368;2023-07-22T10:36:36;100977.38;;;20.86;50.40
49461;BME280;35355;49.198;-0.368;2023-07-22T10:39:02;100964.13;;;20.92;50.67
49461;BME280;35355;49.198;-0.368;2023-07-22T10:41:28;100969.34;;;21.02;50.62
49461;BME280;35355;49.198;-0.368;2023-07-22T10:43:58;100963.00;;;21.10;50.22
49461;BME280;35355;49.198;-0.368;2023-07-22T10:46:38;100961.84;;;21.11;50.31
49461;BME280;35355;49.198;-0.368;2023-07-22T10:49:13;100971.66;;;21.17;49.52
49461;BME280;35355;49.198;-0.368;2023-07-22T10:51:39;100961.00;;;21.19;49.11
49461;BME280;35355;49.198;-0.368;2023-07-22T10:54:12;100964.31;;;21.22;49.20
49461;BME280;35355;49.198;-0.368;2023-07-22T10:56:37;100948.13;;;21.24;48.54
49461;BME280;35355;49.198;-0.368;2023-07-22T10:59:03;100945.16;;;21.29;48.43
49461;BME280;35355;49.198;-0.368;2023-07-22T11:04:07;100951.03;;;21.36;48.92
49461;BME280;35355;49.198;-0.368;2023-07-22T11:06:34;100938.28;;;21.44;48.43
49461;BME280;35355;49.198;-0.368;2023-07-22T11:08:59;100939.44;;;21.51;48.41
49461;BME280;35355;49.198;-0.368;2023-07-22T11:11:44;100951.19;;;21.57;48.97
49461;BME280;35355;49.198;-0.368;2023-07-22T11:14:17;100937.44;;;21.61;47.77
49461;BME280;35355;49.198;-0.368;2023-07-22T11:16:45;100937.28;;;21.66;47.08
49461;BME280;35355;49.198;-0.368;2023-07-22T11:19:12;100948.84;;;21.68;46.61
49461;BME280;35355;49.198;-0.368;2023-07-22T11:21:38;100942.16;;;21.69;46.54
49461;BME280;35355;49.198;-0.368;2023-07-22T11:24:04;100942.16;;;21.69;47.00
49461;BME280;35355;49.198;-0.368;2023-07-22T11:26:31;100928.75;;;21.71;46.51
49461;BME280;35355;49.198;-0.368;2023-07-22T11:28:57;100933.63;;;21.74;46.77
49461;BME280;35355;49.198;-0.368;2023-07-22T11:31:33;100925.47;;;21.78;47.31
49461;BME280;35355;49.198;-0.368;2023-07-22T11:33:59;100930.00;;;21.82;46.44
49461;BME280;35355;49.198;-0.368;2023-07-22T11:36:26;100921.16;;;21.80;46.00
49461;BME280;35355;49.198;-0.368;2023-07-22T11:38:52;100932.97;;;21.77;45.59
49461;BME280;35355;49.198;-0.368;2023-07-22T11:41:17;100913.72;;;21.72;45.56
49461;BME280;35355;49.198;-0.368;2023-07-22T11:43:43;100915.19;;;21.69;45.81
49461;BME280;35355;49.198;-0.368;2023-07-22T11:46:09;100920.41;;;21.71;45.88
49461;BME280;35355;49.198;-0.368;2023-07-22T11:48:35;100910.94;;;21.72;45.86
49461;BME280;35355;49.198;-0.368;2023-07-22T11:51:01;100910.25;;;21.75;45.54
49461;BME280;35355;49.198;-0.368;2023-07-22T11:53:26;100911.22;;;21.79;45.84
49461;BME280;35355;49.198;-0.368;2023-07-22T11:55:58;100900.59;;;21.81;45.84
49461;BME280;35355;49.198;-0.368;2023-07-22T11:58:27;100912.50;;;21.82;45.68
49461;BME280;35355;49.198;-0.368;2023-07-22T12:01:06;100903.38;;;21.81;46.01
49461;BME280;35355;49.198;-0.368;2023-07-22T12:03:35;100890.44;;;21.85;45.67
49461;BME280;35355;49.198;-0.368;2023-07-22T12:06:04;100908.06;;;21.89;45.64
49461;BME280;35355;49.198;-0.368;2023-07-22T12:08:30;100899.53;;;21.95;45.79
49461;BME280;35355;49.198;-0.368;2023-07-22T12:11:00;100897.03;;;22.02;45.77
49461;BME280;35355;49.198;-0.368;2023-07-22T12:13:25;100904.53;;;22.10;45.09
49461;BME280;35355;49.198;-0.368;2023-07-22T12:16:05;100894.22;;;22.11;46.00
49461;BME280;35355;49.198;-0.368;2023-07-22T12:18:44;100895.50;;;22.13;46.15
49461;BME280;35355;49.198;-0.368;2023-07-22T12:21:10;100894.97;;;22.20;44.98
49461;BME280;35355;49.198;-0.368;2023-07-22T12:23:37;100878.44;;;22.23;44.97
49461;BME280;35355;49.198;-0.368;2023-07-22T12:26:03;100895.38;;;22.31;44.94
49461;BME280;35355;49.198;-0.368;2023-07-22T12:28:28;100889.19;;;22.34;44.39
49461;BME280;35355;49.198;-0.368;2023-07-22T12:30:54;100885.25;;;22.35;44.67
49461;BME280;35355;49.198;-0.368;2023-07-22T12:33:20;100878.19;;;22.37;44.88
49461;BME280;35355;49.198;-0.368;2023-07-22T12:35:46;100879.16;;;22.41;44.71
49461;BME280;35355;49.198;-0.368;2023-07-22T12:38:11;100872.91;;;22.45;43.92
49461;BME280;35355;49.198;-0.368;2023-07-22T12:40:38;100877.31;;;22.46;44.13
49461;BME280;35355;49.198;-0.368;2023-07-22T12:43:03;100865.84;;;22.47;44.10